aviador You're here:

MMSL Decoded Metar

in
Report Time2017-06-25 18:44:00
UTC Time2017-06-25 19:12:32
Flight Rules vfr VFR
Wind200° at 10 kt
W.Decomp.*RWY 11: 10.0 kt RCW
W.Rank200° ranks 6
Current wind is above 200° avg. (8.5)
Visibility9999 m
Phenomena:N/A
Clouds:Few 025 Hf
Few 220 Hf
Expected CloudBase > 2,000 ft AGL from Temp-Dew spread
CeilingNone
Temp23°C
Dew Point18°C (74% RH)
AAT22.2°C
QNH1015 hPa
Raw Report
METAR MMSL 251844Z 20010KT 9SM FEW025 FEW220 23/18 A2997 RMK 8/408=

Extra information for MMSL:More info

Social comments